Time;durP1;ratioP1;P1;durP2;ratioP2;P2;SDS_P1;SDS_P2;PMS_P1;PMS_P2;Temp;Humidity;BMP_temperature;BMP_pressure;BME280_temperature;BME280_humidity;BME280_pressure;Samples;Min_cycle;Max_cycle;Signal;HPM_P1;HPM_P2
2023/02/21 05:34:45;;;;;;;11.25;7.22;;;14.00;71.20;;;;;;4763389;30;20068;-81
2023/02/21 05:37:15;;;;;;;14.35;8.18;;;14.00;71.10;;;;;;4772135;30;20059;-76
2023/02/21 05:39:40;;;;;;;12.55;7.93;;;14.10;70.80;;;;;;4783981;29;20390;-74
2023/02/21 05:42:09;;;;;;;16.33;8.00;;;14.10;70.70;;;;;;4790779;30;20051;-77
2023/02/21 05:44:34;;;;;;;13.38;6.88;;;14.10;70.50;;;;;;4790938;29;20143;-75
2023/02/21 05:47:05;;;;;;;14.88;6.53;;;14.20;70.50;;;;;;4789651;30;20138;-77
2023/02/21 05:49:34;;;;;;;14.00;7.50;;;14.20;70.50;;;;;;4790089;30;20450;-76
2023/02/21 05:52:00;;;;;;;12.80;6.47;;;14.40;70.80;;;;;;4788406;30;20043;-76
2023/02/21 05:54:28;;;;;;;15.15;6.90;;;14.40;70.70;;;;;;4790234;30;20077;-81
2023/02/21 05:56:56;;;;;;;18.38;7.28;;;14.50;71.00;;;;;;4789463;29;20492;-83
2023/02/21 05:59:22;;;;;;;18.77;6.47;;;14.60;71.30;;;;;;4790827;30;20122;-80
2023/02/21 06:01:49;;;;;;;17.08;6.53;;;14.70;71.40;;;;;;4790123;30;20407;-74
2023/02/21 06:04:16;;;;;;;14.82;5.45;;;14.70;71.50;;;;;;4790572;30;20082;-74
2023/02/21 06:06:41;;;;;;;20.23;6.13;;;14.80;71.60;;;;;;4789760;30;20189;-75
2023/02/21 06:09:08;;;;;;;16.63;6.38;;;14.80;70.80;;;;;;4790058;30;20467;-78
2023/02/21 06:11:36;;;;;;;15.55;6.40;;;14.70;71.70;;;;;;4759026;30;20070;-75
2023/02/21 06:14:04;;;;;;;10.77;5.30;;;14.80;72.10;;;;;;4790531;30;20059;-73
2023/02/21 06:16:36;;;;;;;13.98;6.15;;;14.80;72.60;;;;;;4789532;30;20051;-73
2023/02/21 06:19:03;;;;;;;14.05;6.50;;;14.80;72.40;;;;;;4789287;30;20066;-74
2023/02/21 06:21:32;;;;;;;13.55;5.95;;;14.90;72.60;;;;;;4789031;30;20058;-75
2023/02/21 06:23:59;;;;;;;10.55;5.25;;;14.90;72.90;;;;;;4773045;30;20367;-73
2023/02/21 06:26:26;;;;;;;14.27;5.50;;;14.90;73.00;;;;;;4789040;29;20126;-73
2023/02/21 06:28:51;;;;;;;15.52;5.38;;;15.00;73.10;;;;;;4789626;30;20047;-73
2023/02/21 06:31:19;;;;;;;13.93;5.50;;;15.00;72.80;;;;;;4789340;30;20051;-73
2023/02/21 06:33:46;;;;;;;13.75;4.53;;;15.10;72.80;;;;;;4788990;29;20055;-73
2023/02/21 06:36:16;;;;;;;9.38;4.50;;;15.20;72.70;;;;;;4788884;29;20047;-74
2023/02/21 06:38:49;;;;;;;12.32;4.20;;;15.30;72.40;;;;;;4789141;30;20051;-74
2023/02/21 06:41:18;;;;;;;9.45;4.45;;;15.40;72.40;;;;;;4758677;30;20087;-73
2023/02/21 06:43:44;;;;;;;6.00;3.17;;;15.50;72.20;;;;;;4789101;29;20043;-73
2023/02/21 06:46:14;;;;;;;7.07;3.75;;;15.60;72.00;;;;;;4789889;30;20062;-73
2023/02/21 06:48:39;;;;;;;9.90;4.10;;;15.70;71.80;;;;;;4789482;30;20082;-72
2023/02/21 06:51:10;;;;;;;16.05;5.43;;;15.70;71.60;;;;;;4790209;30;20097;-73
2023/02/21 06:53:37;;;;;;;11.30;5.68;;;15.80;71.00;;;;;;4789130;30;20047;-72
2023/02/21 06:56:04;;;;;;;9.15;5.43;;;15.80;70.50;;;;;;4789403;30;20051;-72
2023/02/21 06:58:29;;;;;;;7.63;4.53;;;15.80;70.60;;;;;;4788963;30;20051;-72
2023/02/21 07:00:55;;;;;;;8.32;4.78;;;15.80;70.60;;;;;;4790026;30;20062;-71
2023/02/21 07:03:21;;;;;;;10.98;4.50;;;15.80;70.30;;;;;;4790303;30;20055;-71
2023/02/21 07:05:46;;;;;;;10.45;4.20;;;15.90;70.50;;;;;;4789445;29;20058;-71
2023/02/21 07:08:12;;;;;;;9.15;4.60;;;15.90;70.60;;;;;;4789159;30;20087;-73
2023/02/21 07:10:38;;;;;;;17.13;4.82;;;15.90;70.60;;;;;;4789446;29;20081;-72
2023/02/21 07:13:04;;;;;;;11.23;4.78;;;16.00;70.70;;;;;;4791008;29;20055;-72
2023/02/21 07:15:29;;;;;;;13.05;5.10;;;16.00;70.80;;;;;;4792992;29;20051;-72
2023/02/21 07:17:55;;;;;;;12.73;7.63;;;16.00;70.70;;;;;;4793078;29;20471;-72
2023/02/21 07:20:21;;;;;;;9.05;4.30;;;15.40;66.80;;;;;;4792814;29;20211;-71
2023/02/21 07:22:46;;;;;;;18.60;5.78;;;15.50;70.30;;;;;;4793300;30;20413;-71
2023/02/21 07:25:17;;;;;;;15.13;5.10;;;15.60;71.10;;;;;;4793093;30;20366;-71
2023/02/21 07:27:43;;;;;;;23.52;5.22;;;15.60;71.40;;;;;;4793406;29;20366;-71
2023/02/21 07:30:10;;;;;;;16.20;5.35;;;15.70;71.70;;;;;;4792934;30;20054;-73
2023/02/21 07:32:36;;;;;;;16.67;5.13;;;15.70;71.70;;;;;;4794120;29;20126;-72
2023/02/21 07:35:02;;;;;;;17.20;5.03;;;15.80;71.70;;;;;;4809541;29;20184;-71
2023/02/21 07:37:27;;;;;;;14.23;5.00;;;15.80;71.70;;;;;;4810113;29;20122;-76
2023/02/21 07:39:53;;;;;;;32.25;6.97;;;15.90;71.70;;;;;;4810675;29;20551;-71
2023/02/21 07:42:19;;;;;;;21.75;5.40;;;15.90;71.40;;;;;;4810441;29;20061;-72
2023/02/21 07:44:45;;;;;;;19.10;5.40;;;15.90;71.20;;;;;;4810412;29;20077;-70
2023/02/21 07:47:10;;;;;;;13.73;4.68;;;15.90;71.10;;;;;;4810900;29;20082;-72
2023/02/21 07:49:40;;;;;;;20.42;5.68;;;15.90;71.00;;;;;;4810508;29;20059;-71
2023/02/21 07:52:06;;;;;;;15.48;5.38;;;15.90;70.90;;;;;;4801719;29;20055;-70
2023/02/21 07:54:32;;;;;;;14.15;4.35;;;15.90;70.90;;;;;;4810406;29;20462;-72
2023/02/21 07:56:58;;;;;;;16.20;4.38;;;15.90;70.90;;;;;;4810643;29;20490;-72
2023/02/21 07:59:24;;;;;;;16.70;4.32;;;15.90;70.90;;;;;;4810139;29;20051;-75
2023/02/21 08:01:50;;;;;;;14.43;4.78;;;15.90;71.00;;;;;;4809551;29;20058;-72
2023/02/21 08:04:20;;;;;;;15.73;4.63;;;15.90;71.20;;;;;;4810387;29;20405;-72
2023/02/21 08:06:46;;;;;;;18.83;4.78;;;16.00;71.40;;;;;;4810365;29;20062;-72
2023/02/21 08:09:12;;;;;;;15.68;4.70;;;16.00;71.50;;;;;;4809944;29;20047;-72
2023/02/21 08:11:39;;;;;;;16.10;4.18;;;16.00;71.60;;;;;;4809845;29;20050;-73
2023/02/21 08:14:05;;;;;;;21.38;4.68;;;16.00;71.60;;;;;;4793885;29;20477;-73
2023/02/21 08:16:31;;;;;;;16.48;4.47;;;16.10;71.70;;;;;;4810391;29;20059;-73
2023/02/21 08:18:57;;;;;;;18.25;4.65;;;16.10;71.70;;;;;;4810194;29;20067;-73
2023/02/21 08:21:22;;;;;;;18.30;5.10;;;16.10;71.60;;;;;;4810009;29;20047;-73
2023/02/21 08:23:53;;;;;;;16.17;4.18;;;16.10;71.50;;;;;;4809682;29;20055;-73
2023/02/21 08:26:19;;;;;;;18.90;4.60;;;16.10;71.40;;;;;;4808689;29;20386;-73
2023/02/21 08:28:45;;;;;;;18.50;5.60;;;16.10;71.40;;;;;;4809884;29;20066;-73
2023/02/21 08:31:10;;;;;;;17.50;5.95;;;16.10;71.50;;;;;;4809849;29;20058;-73
2023/02/21 08:33:36;;;;;;;16.75;5.55;;;16.10;71.10;;;;;;4809587;29;20055;-77
2023/02/21 08:36:02;;;;;;;11.60;4.72;;;16.10;71.00;;;;;;4808775;29;20050;-74
2023/02/21 08:38:28;;;;;;;13.30;4.72;;;16.10;71.00;;;;;;4809486;29;20498;-74
2023/02/21 08:40:54;;;;;;;18.08;4.70;;;16.10;70.90;;;;;;4810026;29;20050;-74
2023/02/21 08:43:20;;;;;;;10.32;4.63;;;16.10;70.90;;;;;;4810177;29;20141;-75
2023/02/21 08:45:45;;;;;;;10.55;4.18;;;16.10;71.00;;;;;;4809567;29;20050;-75
2023/02/21 08:48:11;;;;;;;14.00;6.45;;;16.10;71.00;;;;;;4800574;29;20050;-75
2023/02/21 08:50:37;;;;;;;13.45;8.15;;;16.10;70.90;;;;;;4795060;29;20112;-76
2023/02/21 08:53:03;;;;;;;20.95;10.88;;;16.10;70.10;;;;;;4761182;30;20437;-75
2023/02/21 08:55:29;;;;;;;18.35;11.70;;;16.10;68.40;;;;;;4798954;29;20034;-76
2023/02/21 08:57:55;;;;;;;13.48;10.75;;;16.00;67.70;;;;;;4813577;29;20046;-78
2023/02/21 09:00:23;;;;;;;16.90;10.48;;;16.00;67.20;;;;;;4812193;29;20367;-77
2023/02/21 09:02:51;;;;;;;18.60;9.82;;;16.00;67.10;;;;;;4812973;29;20055;-77
2023/02/21 09:05:25;;;;;;;17.10;8.52;;;16.00;67.10;;;;;;4809438;29;20245;-77
2023/02/21 09:07:54;;;;;;;;;;;16.10;67.20;;;;;;4809680;29;20059;-78
2023/02/21 09:10:20;;;;;;;20.48;7.97;;;16.20;67.40;;;;;;4809037;29;19925;-78
2023/02/21 09:12:46;;;;;;;11.57;6.88;;;16.20;67.60;;;;;;4808583;29;20101;-77
2023/02/21 09:15:16;;;;;;;19.80;7.55;;;16.20;67.70;;;;;;4808996;29;20050;-77
2023/02/21 09:17:42;;;;;;;13.18;6.32;;;16.20;67.70;;;;;;4808719;29;20046;-77
2023/02/21 09:20:10;;;;;;;12.20;6.13;;;16.20;67.90;;;;;;4808020;29;20063;-77
2023/02/21 09:22:35;;;;;;;11.82;5.80;;;16.30;68.10;;;;;;4792990;29;20050;-78
2023/02/21 09:25:02;;;;;;;14.30;5.82;;;16.30;68.30;;;;;;4808493;29;20435;-78
2023/02/21 09:27:36;;;;;;;11.25;5.10;;;16.30;68.30;;;;;;4791997;29;20050;-78
2023/02/21 09:30:13;;;;;;;15.82;5.70;;;16.30;68.30;;;;;;4792873;29;20382;-78
2023/02/21 09:32:40;;;;;;;11.95;4.68;;;16.30;68.30;;;;;;4793130;29;20063;-78
2023/02/21 09:35:07;;;;;;;10.95;5.20;;;16.30;68.30;;;;;;4807943;29;20459;-80
2023/02/21 09:37:37;;;;;;;12.73;4.70;;;16.30;68.20;;;;;;4791030;29;20452;-78
2023/02/21 09:40:07;;;;;;;10.93;4.07;;;16.20;68.30;;;;;;4808231;29;20058;-78
2023/02/21 09:42:35;;;;;;;9.88;4.18;;;16.20;68.40;;;;;;4806404;29;20082;-79
2023/02/21 09:45:01;;;;;;;10.65;3.90;;;16.20;68.40;;;;;;4793083;29;20129;-78
2023/02/21 09:47:30;;;;;;;12.45;4.30;;;16.20;68.40;;;;;;4807899;29;20195;-77
2023/02/21 09:50:05;;;;;;;11.65;4.10;;;16.20;68.50;;;;;;4808241;29;20065;-77
2023/02/21 09:52:37;;;;;;;9.15;3.90;;;16.20;68.50;;;;;;4793321;29;20058;-77
2023/02/21 09:55:28;;;;;;;11.23;4.13;;;16.10;68.50;;;;;;4793004;29;20087;-78
2023/02/21 09:57:54;;;;;;;5.65;3.13;;;16.10;68.40;;;;;;4808252;29;20158;-79
2023/02/21 10:00:23;;;;;;;10.55;4.00;;;16.10;68.50;;;;;;4808271;29;20042;-78
2023/02/21 10:03:08;;;;;;;6.80;3.88;;;16.20;68.60;;;;;;4808432;29;20050;-79
2023/02/21 10:06:03;;;;;;;7.00;3.90;;;15.90;67.60;;;;;;4807615;29;20084;-80
2023/02/21 10:08:58;;;;;;;8.80;4.07;;;15.70;67.50;;;;;;4802283;29;20050;-80
2023/02/21 10:11:27;;;;;;;8.30;3.70;;;15.50;68.50;;;;;;4797554;29;20049;-78
2023/02/21 10:14:18;;;;;;;5.72;3.45;;;15.40;69.20;;;;;;4812828;29;20054;-78
2023/02/21 10:17:10;;;;;;;6.00;3.20;;;15.20;69.70;;;;;;4807219;29;20079;-79
2023/02/21 10:19:41;;;;;;;8.18;3.15;;;15.40;70.60;;;;;;4792691;29;20062;-77
2023/02/21 10:22:19;;;;;;;5.40;3.25;;;15.40;70.40;;;;;;4792048;29;20130;-77
2023/02/21 10:24:46;;;;;;;9.20;2.95;;;15.50;70.30;;;;;;4807860;29;20485;-77
2023/02/21 10:27:20;;;;;;;4.88;2.30;;;15.70;70.00;;;;;;4807853;29;20094;-78
2023/02/21 10:30:10;;;;;;;7.07;1.95;;;15.70;69.60;;;;;;4807201;29;20047;-78
2023/02/21 10:32:37;;;;;;;6.30;2.80;;;15.80;69.40;;;;;;4805111;29;20131;-77
2023/02/21 10:35:04;;;;;;;4.30;2.40;;;15.80;69.20;;;;;;4789536;29;20100;-77
2023/02/21 10:37:52;;;;;;;7.07;2.03;;;15.90;69.10;;;;;;4807074;29;20125;-78
2023/02/21 10:40:38;;;;;;;5.63;2.42;;;15.90;69.00;;;;;;4808283;29;20466;-78
2023/02/21 10:43:47;;;;;;;4.30;2.22;;;15.90;68.80;;;;;;4807817;29;20384;-78
2023/02/21 10:46:26;;;;;;;3.50;1.63;;;16.00;68.70;;;;;;4785428;29;20071;-78
2023/02/21 10:48:58;;;;;;;4.95;2.03;;;16.00;68.60;;;;;;4804479;29;20439;-78
2023/02/21 10:51:34;;;;;;;8.07;2.58;;;16.00;68.60;;;;;;4809722;29;20108;-75
2023/02/21 10:54:22;;;;;;;7.65;3.63;;;16.00;68.60;;;;;;4791039;29;20069;-76
2023/02/21 10:56:51;;;;;;;6.68;3.22;;;16.00;68.10;;;;;;4808110;29;20054;-77
2023/02/21 10:59:28;;;;;;;7.50;3.78;;;16.10;68.20;;;;;;4805198;29;20117;-77
2023/02/21 11:01:55;;;;;;;8.40;2.72;;;16.10;68.20;;;;;;4790490;29;20166;-76
2023/02/21 11:04:22;;;;;;;7.93;3.22;;;16.10;68.30;;;;;;4806960;29;20039;-76
2023/02/21 11:06:55;;;;;;;9.88;2.95;;;16.10;68.40;;;;;;4807856;29;20038;-76
2023/02/21 11:09:38;;;;;;;11.15;2.80;;;16.10;68.50;;;;;;4807782;29;20059;-76
2023/02/21 11:12:18;;;;;;;7.55;3.00;;;16.10;68.80;;;;;;4807136;29;20060;-77
2023/02/21 11:15:20;;;;;;;6.13;2.40;;;16.10;68.90;;;;;;4805749;29;20057;-78
2023/02/21 11:18:03;;;;;;;7.78;2.38;;;16.20;69.10;;;;;;4807849;29;20063;-78
2023/02/21 11:20:28;;;;;;;7.28;2.72;;;16.20;69.70;;;;;;4791497;29;20490;-74
2023/02/21 11:22:54;;;;;;;7.57;2.75;;;16.10;69.70;;;;;;4806920;29;20055;-78
2023/02/21 11:25:31;;;;;;;8.15;2.67;;;16.10;69.70;;;;;;4807715;29;20051;-78
2023/02/21 11:28:21;;;;;;;8.73;2.67;;;16.20;69.80;;;;;;4806536;29;20058;-78
2023/02/21 11:31:30;;;;;;;9.30;2.20;;;16.10;69.70;;;;;;4803675;29;20482;-78
2023/02/21 11:34:02;;;;;;;13.73;3.03;;;16.10;69.60;;;;;;4768540;30;20055;-76
2023/02/21 11:36:37;;;;;;;15.18;2.67;;;16.10;69.90;;;;;;4787532;30;20055;-77
2023/02/21 11:39:06;;;;;;;8.15;2.50;;;16.10;69.90;;;;;;4803189;29;20051;-76
2023/02/21 11:41:31;;;;;;;18.95;3.10;;;16.10;69.90;;;;;;4789391;30;20062;-77
2023/02/21 11:43:57;;;;;;;8.77;2.63;;;16.10;69.80;;;;;;4803747;29;20046;-77
2023/02/21 11:46:45;;;;;;;12.90;2.70;;;16.10;69.80;;;;;;4807077;29;20136;-78
2023/02/21 11:49:14;;;;;;;15.30;2.97;;;16.10;69.60;;;;;;4807232;29;20486;-77
2023/02/21 11:51:49;;;;;;;8.27;2.55;;;16.00;69.60;;;;;;4807575;29;20058;-76
2023/02/21 11:54:17;;;;;;;10.15;2.50;;;16.00;69.60;;;;;;4807174;29;20051;-76
2023/02/21 11:57:11;;;;;;;6.45;2.20;;;16.00;69.60;;;;;;4807361;29;20066;-77
2023/02/21 11:59:46;;;;;;;9.18;2.35;;;16.00;69.50;;;;;;4809388;29;20097;-77
2023/02/21 12:02:18;;;;;;;10.73;2.13;;;15.90;69.50;;;;;;4810029;29;20050;-76
2023/02/21 12:05:28;;;;;;;7.30;2.20;;;15.90;69.50;;;;;;4810069;29;20051;-77
2023/02/21 12:08:28;;;;;;;5.78;1.70;;;15.90;69.40;;;;;;4810409;29;20116;-77
2023/02/21 12:11:03;;;;;;;4.47;1.83;;;15.90;69.40;;;;;;4810252;29;20069;-76
2023/02/21 12:13:50;;;;;;;6.90;2.05;;;15.90;69.50;;;;;;4809681;29;20141;-76
2023/02/21 12:16:26;;;;;;;5.93;1.73;;;15.80;69.30;;;;;;4810475;29;20047;-77
2023/02/21 12:19:05;;;;;;;6.25;1.95;;;15.90;69.40;;;;;;4809586;29;20092;-78
2023/02/21 12:21:34;;;;;;;4.35;1.88;;;15.80;69.30;;;;;;4810310;29;20066;-77
2023/02/21 12:24:18;;;;;;;5.93;1.90;;;15.90;69.40;;;;;;4793554;29;20051;-77
2023/02/21 12:26:49;;;;;;;7.40;2.05;;;15.80;69.30;;;;;;4810461;29;20055;-78
2023/02/21 12:29:34;;;;;;;4.40;1.77;;;15.80;69.40;;;;;;4810387;29;20054;-77
2023/02/21 12:32:36;;;;;;;5.20;1.85;;;15.80;69.20;;;;;;4810370;29;20050;-76
2023/02/21 12:35:26;;;;;;;5.32;1.52;;;15.80;69.20;;;;;;4809491;29;20059;-78
2023/02/21 12:38:11;;;;;;;6.65;1.70;;;15.80;69.30;;;;;;4809981;29;20065;-76
2023/02/21 12:41:04;;;;;;;5.13;1.70;;;15.80;69.20;;;;;;4793155;29;20059;-77
2023/02/21 12:44:04;;;;;;;3.80;1.50;;;15.80;69.10;;;;;;4809527;29;20486;-77
2023/02/21 12:47:10;;;;;;;6.05;2.13;;;15.80;69.10;;;;;;4793424;29;20054;-78
2023/02/21 12:49:39;;;;;;;8.48;1.88;;;15.70;69.20;;;;;;4753262;30;20117;-78
2023/02/21 12:52:27;;;;;;;9.00;2.55;;;15.70;69.40;;;;;;4739905;30;20064;-77
2023/02/21 12:54:56;;;;;;;7.43;2.00;;;15.70;69.50;;;;;;4782475;29;20058;-79
2023/02/21 12:57:41;;;;;;;12.25;2.60;;;15.70;69.60;;;;;;4789667;29;20055;-78
2023/02/21 13:00:21;;;;;;;10.60;5.00;;;15.80;69.70;;;;;;4804735;29;20126;-77
2023/02/21 13:02:52;;;;;;;12.70;8.75;;;15.80;69.30;;;;;;4793036;29;20477;-78
2023/02/21 13:05:50;;;;;;;16.02;8.60;;;15.80;68.80;;;;;;4805768;29;20156;-77
2023/02/21 13:08:34;;;;;;;15.30;8.43;;;15.80;68.10;;;;;;4782190;29;20065;-79
2023/02/21 13:11:26;;;;;;;16.20;9.20;;;15.80;67.60;;;;;;4808000;29;20201;-81
2023/02/21 13:13:51;;;;;;;12.77;7.50;;;15.70;67.50;;;;;;4806644;29;20047;-74
2023/02/21 13:16:18;;;;;;;11.52;7.45;;;15.70;67.60;;;;;;4792008;29;20042;-78
2023/02/21 13:18:58;;;;;;;12.93;7.40;;;15.70;67.80;;;;;;4807897;29;20102;-80
2023/02/21 13:21:44;;;;;;;12.80;6.45;;;15.70;67.80;;;;;;4808189;29;20055;-76
2023/02/21 13:24:48;;;;;;;9.27;6.32;;;15.70;68.00;;;;;;4807969;29;20039;-75
2023/02/21 13:27:37;;;;;;;9.07;6.03;;;15.70;68.30;;;;;;4810500;29;20121;-80
2023/02/21 13:30:36;;;;;;;11.18;5.40;;;15.70;68.50;;;;;;4801845;29;20043;-78
2023/02/21 13:33:02;;;;;;;7.40;5.38;;;15.70;68.50;;;;;;4794369;29;20428;-78
2023/02/21 13:35:37;;;;;;;13.75;5.10;;;15.70;68.60;;;;;;4809172;29;20054;-78
2023/02/21 13:38:09;;;;;;;11.60;5.68;;;15.60;68.50;;;;;;4775171;30;20415;-78
2023/02/21 13:41:08;;;;;;;11.02;5.57;;;15.70;68.80;;;;;;4790947;30;20133;-77
2023/02/21 13:43:43;;;;;;;10.20;5.05;;;15.70;68.80;;;;;;4791082;30;20043;-78
2023/02/21 13:46:28;;;;;;;6.28;4.40;;;15.70;68.90;;;;;;4803557;29;20086;-81
2023/02/21 13:49:31;;;;;;;9.38;4.63;;;15.70;68.90;;;;;;4776780;29;20069;-78
2023/02/21 13:52:21;;;;;;;7.13;4.40;;;15.70;69.00;;;;;;4808254;29;20047;-79
2023/02/21 13:57:45;;;;;;;7.70;3.97;;;15.70;69.00;;;;;;4808738;29;20050;-77
2023/02/21 14:00:20;;;;;;;8.05;4.00;;;15.60;69.10;;;;;;4808972;29;20454;-78
2023/02/21 14:03:06;;;;;;;6.97;3.50;;;15.70;69.30;;;;;;4808492;29;20062;-79
2023/02/21 14:05:44;;;;;;;4.95;3.60;;;15.70;69.30;;;;;;4801186;29;20050;-77
2023/02/21 14:08:14;;;;;;;5.93;3.38;;;15.70;69.40;;;;;;4807472;29;20089;-76
2023/02/21 14:10:45;;;;;;;9.77;3.55;;;15.70;69.50;;;;;;4808393;29;20142;-78
2023/02/21 14:13:38;;;;;;;8.40;5.47;;;15.70;69.50;;;;;;4791934;29;20150;-76
2023/02/21 14:16:06;;;;;;;11.68;7.00;;;15.70;69.40;;;;;;4797780;29;20166;-74
2023/02/21 14:18:38;;;;;;;10.07;7.00;;;15.60;68.90;;;;;;4805225;29;20071;-76
2023/02/21 14:21:14;;;;;;;10.15;7.43;;;15.70;68.40;;;;;;4806824;29;20059;-76
2023/02/21 14:24:08;;;;;;;7.85;6.88;;;15.60;68.20;;;;;;4807123;29;20054;-76
2023/02/21 14:26:39;;;;;;;8.93;7.47;;;15.60;68.20;;;;;;4773322;29;20094;-81
2023/02/21 14:29:07;;;;;;;8.45;7.57;;;15.60;68.10;;;;;;4776161;29;20505;-81
2023/02/21 14:32:00;;;;;;;12.52;7.72;;;15.60;67.10;;;;;;4808131;29;20054;-78
2023/02/21 14:34:46;;;;;;;16.02;8.45;;;15.50;67.10;;;;;;4805936;29;20055;-79
2023/02/21 14:37:22;;;;;;;8.75;7.45;;;15.40;67.10;;;;;;4803615;29;20065;-77
2023/02/21 14:39:53;;;;;;;14.57;7.32;;;15.40;67.60;;;;;;4804367;29;20375;-79
2023/02/21 14:42:37;;;;;;;11.68;6.93;;;15.40;67.80;;;;;;4787166;29;20058;-80
2023/02/21 14:45:08;;;;;;;8.20;5.50;;;15.40;67.80;;;;;;4788239;29;20058;-82
2023/02/21 14:48:05;;;;;;;10.75;5.75;;;15.40;67.90;;;;;;4777494;29;20046;-79
2023/02/21 14:50:54;;;;;;;9.75;4.57;;;15.50;68.10;;;;;;4805616;29;20131;-74
2023/02/21 14:53:41;;;;;;;7.47;4.70;;;15.60;68.30;;;;;;4806791;29;20055;-78
2023/02/21 14:56:29;;;;;;;4.90;3.90;;;15.70;68.40;;;;;;4805851;29;20344;-78
2023/02/21 14:59:39;;;;;;;8.43;4.20;;;15.70;68.20;;;;;;4763574;30;20468;-78
2023/02/21 15:02:29;;;;;;;6.03;3.40;;;15.80;68.20;;;;;;4806149;29;20130;-80
2023/02/21 15:05:11;;;;;;;10.00;3.63;;;15.70;68.50;;;;;;4790049;30;20099;-77
2023/02/21 15:07:56;;;;;;;6.53;3.58;;;15.70;68.70;;;;;;4790759;29;20055;-76
2023/02/21 15:10:25;;;;;;;24.73;5.22;;;15.70;68.80;;;;;;4807318;29;20046;-76
2023/02/21 15:12:54;;;;;;;32.05;5.15;;;15.70;69.00;;;;;;4806714;29;20082;-72
2023/02/21 15:15:22;;;;;;;17.08;4.72;;;15.80;69.30;;;;;;4806707;29;20122;-74
2023/02/21 15:18:09;;;;;;;24.02;4.50;;;15.80;69.30;;;;;;4807062;29;20065;-75
2023/02/21 15:20:41;;;;;;;27.02;4.65;;;15.90;69.50;;;;;;4791145;29;20054;-79
2023/02/21 15:23:28;;;;;;;22.27;5.22;;;15.90;69.60;;;;;;4806554;29;20121;-77
2023/02/21 15:25:56;;;;;;;17.02;3.50;;;16.00;69.60;;;;;;4806371;29;20053;-77
2023/02/21 15:28:25;;;;;;;21.77;4.32;;;16.10;69.50;;;;;;4791949;29;20047;-80
2023/02/21 15:31:01;;;;;;;15.90;3.47;;;16.20;69.50;;;;;;4793442;29;20492;-78
2023/02/21 15:33:32;;;;;;;26.98;3.45;;;16.30;69.60;;;;;;4819110;29;20054;-75
2023/02/21 15:36:07;;;;;;;19.80;4.13;;;16.40;69.50;;;;;;4811262;29;20090;-78
2023/02/21 15:38:40;;;;;;;20.63;3.45;;;16.40;69.40;;;;;;4810449;29;20122;-77
2023/02/21 15:41:18;;;;;;;14.65;3.42;;;16.60;69.20;;;;;;4810406;29;20156;-78
2023/02/21 15:43:50;;;;;;;14.77;4.07;;;16.60;69.10;;;;;;4808573;29;20049;-77
2023/02/21 15:46:21;;;;;;;10.10;3.42;;;16.70;69.00;;;;;;4810319;29;20356;-78
2023/02/21 15:48:48;;;;;;;19.15;4.68;;;16.70;68.70;;;;;;4810968;29;20379;-79
2023/02/21 15:51:14;;;;;;;14.15;4.00;;;16.80;68.90;;;;;;4794687;29;20054;-79
2023/02/21 15:53:42;;;;;;;20.00;4.70;;;16.80;69.00;;;;;;4794746;29;20054;-82
2023/02/21 15:56:34;;;;;;;13.15;3.00;;;16.90;69.20;;;;;;4794392;29;20093;-78
2023/02/21 15:59:07;;;;;;;16.98;3.30;;;16.90;69.20;;;;;;4808515;29;20061;-78
2023/02/21 16:01:33;;;;;;;10.30;3.03;;;16.90;69.20;;;;;;4793523;29;20481;-77
2023/02/21 16:04:18;;;;;;;10.38;2.50;;;17.00;69.20;;;;;;4794544;29;20043;-79
2023/02/21 16:07:03;;;;;;;12.52;3.25;;;17.00;69.70;;;;;;4810594;29;20050;-78
2023/02/21 16:09:33;;;;;;;11.90;2.58;;;17.00;70.20;;;;;;4809982;29;20122;-78
2023/02/21 16:12:11;;;;;;;12.38;3.63;;;17.00;70.10;;;;;;4810245;29;20062;-80
2023/02/21 16:14:37;;;;;;;10.55;2.65;;;17.00;70.20;;;;;;4810110;29;20071;-79
2023/02/21 16:17:11;;;;;;;11.20;2.95;;;17.00;70.20;;;;;;4810653;29;20058;-78
2023/02/21 16:19:39;;;;;;;11.82;2.50;;;17.00;70.30;;;;;;4810111;29;20466;-80
2023/02/21 16:22:21;;;;;;;17.08;4.35;;;16.90;70.30;;;;;;4779337;29;20147;-80
2023/02/21 16:24:47;;;;;;;10.70;2.60;;;16.90;70.40;;;;;;4810429;29;20363;-79
2023/02/21 16:27:19;;;;;;;12.95;2.70;;;16.90;71.10;;;;;;4810308;29;20051;-77
2023/02/21 16:29:45;;;;;;;14.35;2.70;;;17.00;70.50;;;;;;4793653;29;20051;-77
2023/02/21 16:32:18;;;;;;;13.82;2.70;;;16.90;70.40;;;;;;4810231;29;20131;-75
2023/02/21 16:34:45;;;;;;;12.90;3.33;;;16.90;70.40;;;;;;4809493;29;20065;-76
2023/02/21 16:37:13;;;;;;;10.50;3.30;;;16.90;70.30;;;;;;4810048;29;20065;-77
2023/02/21 16:39:40;;;;;;;9.48;2.70;;;16.90;70.10;;;;;;4809755;29;20061;-77
2023/02/21 16:42:06;;;;;;;10.35;3.25;;;16.90;70.20;;;;;;4810117;29;20097;-76
2023/02/21 16:44:32;;;;;;;12.98;3.00;;;16.90;70.10;;;;;;4809533;29;20058;-75
2023/02/21 16:46:58;;;;;;;11.00;3.28;;;16.90;70.20;;;;;;4809107;29;20436;-76
2023/02/21 16:49:24;;;;;;;9.02;2.53;;;17.00;70.30;;;;;;4809747;29;20050;-77
2023/02/21 16:51:50;;;;;;;12.02;2.78;;;16.90;70.40;;;;;;4809671;29;20422;-77
2023/02/21 16:54:16;;;;;;;10.77;2.70;;;16.90;70.50;;;;;;4808979;29;20046;-77
2023/02/21 16:56:45;;;;;;;13.48;3.22;;;16.90;70.50;;;;;;4809445;29;20126;-77
2023/02/21 16:59:14;;;;;;;19.98;2.75;;;16.90;70.50;;;;;;4802186;29;20134;-81
2023/02/21 17:01:40;;;;;;;9.18;2.38;;;16.90;70.40;;;;;;4809273;29;20121;-76
2023/02/21 17:04:16;;;;;;;12.57;3.03;;;16.90;70.40;;;;;;4809113;29;20046;-77
2023/02/21 17:06:45;;;;;;;13.18;2.90;;;16.90;70.50;;;;;;4806840;29;20047;-77
2023/02/21 17:09:18;;;;;;;15.27;3.40;;;16.90;70.70;;;;;;4808953;29;20128;-76
2023/02/21 17:11:44;;;;;;;14.02;3.38;;;16.90;70.90;;;;;;4793258;29;20129;-76
2023/02/21 18:55:02;;;;;;;11.35;6.00;;;15.60;71.30;;;;;;5086603;24;20051;-71
2023/02/21 18:57:28;;;;;;;15.00;7.03;;;15.60;70.70;;;;;;4805948;29;20458;-72
2023/02/21 18:59:54;;;;;;;15.30;7.00;;;15.60;71.00;;;;;;4807337;29;20357;-74
2023/02/21 19:02:20;;;;;;;16.23;7.45;;;15.70;71.20;;;;;;4807489;29;20130;-72
2023/02/21 19:04:46;;;;;;;13.85;7.47;;;15.70;71.90;;;;;;4806861;29;20399;-72
2023/02/21 19:07:15;;;;;;;16.15;7.60;;;15.70;72.80;;;;;;4807599;29;20055;-72
2023/02/21 19:09:43;;;;;;;10.90;7.03;;;15.80;73.80;;;;;;4810033;29;20130;-74
2023/02/21 19:12:09;;;;;;;10.60;6.68;;;15.80;74.00;;;;;;4811513;29;20092;-72
2023/02/21 19:14:36;;;;;;;7.88;6.15;;;15.90;74.00;;;;;;4811276;29;20137;-74
2023/02/21 19:17:02;;;;;;;11.52;6.57;;;15.90;74.30;;;;;;4810228;29;20459;-73
2023/02/21 19:19:31;;;;;;;7.70;5.15;;;15.90;74.10;;;;;;4811326;29;20055;-71
2023/02/21 19:21:58;;;;;;;7.72;5.65;;;16.00;72.80;;;;;;4811425;29;20054;-70
2023/02/21 19:24:23;;;;;;;9.63;5.88;;;15.90;71.90;;;;;;4795448;29;20051;-71
2023/02/21 19:26:49;;;;;;;11.88;5.68;;;15.90;71.60;;;;;;4810586;29;20047;-72
2023/02/21 19:29:15;;;;;;;9.70;5.38;;;15.90;71.50;;;;;;4810052;29;20411;-76
2023/02/21 19:31:41;;;;;;;13.32;5.03;;;15.90;71.50;;;;;;4810777;29;20068;-72
